Time;durP1;ratioP1;P1;durP2;ratioP2;P2;SDS_P1;SDS_P2;PMS_P1;PMS_P2;Temp;Humidity;BMP_temperature;BMP_pressure;BME280_temperature;BME280_humidity;BME280_pressure;Samples;Min_cycle;Max_cycle;Signal;HPM_P1;HPM_P2
2023/01/27 00:00:50;;;;;;;2.37;1.13;;;4.40;99.90;;;;;;5012697;28;20414;-95
2023/01/27 00:03:16;;;;;;;1.37;0.57;;;4.40;99.90;;;;;;4999198;28;20171;-92
2023/01/27 00:05:42;;;;;;;4.83;0.67;;;4.40;99.90;;;;;;4979300;28;20494;-94
2023/01/27 00:08:08;;;;;;;1.40;0.70;;;4.40;99.90;;;;;;4979123;28;20465;-84
2023/01/27 00:10:34;;;;;;;1.80;0.37;;;4.40;99.90;;;;;;4977027;28;20435;-91
2023/01/27 00:15:43;;;;;;;2.03;0.50;;;4.40;99.90;;;;;;5002508;28;20202;-91
2023/01/27 00:18:09;;;;;;;1.20;0.73;;;4.40;99.90;;;;;;5017237;28;20418;-87
2023/01/27 00:26:09;;;;;;;1.73;1.13;;;4.40;99.90;;;;;;5198656;23;20492;-85
2023/01/27 00:28:35;;;;;;;2.87;0.57;;;4.50;99.90;;;;;;5036607;28;20426;-85
2023/01/27 00:31:01;;;;;;;2.27;1.07;;;4.40;99.90;;;;;;5020814;28;20399;-90
2023/01/27 00:33:28;;;;;;;6.80;1.87;;;4.50;99.90;;;;;;5030536;28;20482;-93
2023/01/27 00:36:04;;;;;;;2.37;0.70;;;4.20;99.90;;;;;;5019142;28;20415;-89
2023/01/27 00:38:40;;;;;;;1.53;0.50;;;4.40;99.90;;;;;;5015357;28;20489;-86
2023/01/27 00:41:19;;;;;;;1.73;0.60;;;4.30;99.90;;;;;;5017856;28;20474;-86
2023/01/27 00:43:46;;;;;;;2.97;1.30;;;4.40;99.90;;;;;;5017232;28;20446;-88
2023/01/27 00:46:12;;;;;;;1.60;0.50;;;4.40;99.90;;;;;;5016822;28;20422;-87
2023/01/27 00:48:38;;;;;;;1.97;0.57;;;4.60;99.90;;;;;;5038261;28;20491;-86
2023/01/27 00:51:05;;;;;;;1.40;0.43;;;4.50;99.90;;;;;;5040225;23;20490;-91
2023/01/27 00:56:12;;;;;;;2.40;1.10;;;4.40;99.90;;;;;;5103036;23;20499;-86
2023/01/27 00:58:37;;;;;;;1.10;0.57;;;4.30;99.90;;;;;;4998810;28;20424;-86
2023/01/27 01:01:06;;;;;;;2.40;1.13;;;4.40;99.90;;;;;;5009234;23;20487;-86
2023/01/27 01:03:34;;;;;;;1.50;0.70;;;4.30;99.90;;;;;;5002133;28;20612;-87
2023/01/27 01:06:02;;;;;;;1.00;0.60;;;4.40;99.90;;;;;;4998451;28;20931;-86
2023/01/27 01:08:29;;;;;;;1.30;0.50;;;4.10;99.90;;;;;;5002888;28;20406;-87
2023/01/27 01:10:55;;;;;;;1.40;0.97;;;4.40;99.90;;;;;;5000083;28;20443;-87
2023/01/27 01:13:21;;;;;;;3.33;0.77;;;4.40;99.90;;;;;;4969680;28;20497;-88
2023/01/27 01:15:56;;;;;;;1.57;0.50;;;4.40;99.90;;;;;;4998920;28;20183;-85
2023/01/27 01:18:21;;;;;;;0.80;0.23;;;4.50;99.90;;;;;;5106067;23;20238;-85
2023/01/27 01:20:47;;;;;;;2.60;0.83;;;4.30;99.90;;;;;;4982522;28;20428;-85
2023/01/27 01:23:14;;;;;;;1.90;0.83;;;4.50;99.90;;;;;;4990005;28;20271;-85
2023/01/27 01:28:17;;;;;;;2.83;0.90;;;4.50;99.90;;;;;;5574834;23;20492;-85
2023/01/27 01:33:18;;;;;;;1.40;0.80;;;4.50;99.90;;;;;;4649952;26;20467;-93
2023/01/27 01:35:43;;;;;;;1.97;0.83;;;4.30;99.90;;;;;;5014773;28;20431;-86
2023/01/27 01:38:09;;;;;;;2.57;1.27;;;4.50;99.90;;;;;;5150635;23;20338;-91
2023/01/27 01:40:42;;;;;;;2.20;1.17;;;4.30;99.90;;;;;;5021347;28;20227;-92
2023/01/27 01:43:16;;;;;;;2.60;0.87;;;4.50;99.90;;;;;;5001754;28;20228;-86
2023/01/27 01:45:47;;;;;;;2.40;0.73;;;4.40;99.90;;;;;;5003237;28;20413;-94
2023/01/27 01:48:47;;;;;;;2.40;0.43;;;4.50;99.90;;;;;;5021726;28;20445;-84
2023/01/27 01:51:21;;;;;;;0.73;0.30;;;4.60;99.90;;;;;;5000140;28;20445;-87
2023/01/27 01:54:09;;;;;;;1.90;0.63;;;4.60;99.90;;;;;;5033278;28;20434;-85
2023/01/27 01:56:44;;;;;;;5.07;1.10;;;4.60;99.90;;;;;;5026721;28;20445;-85
2023/01/27 01:59:19;;;;;;;0.87;0.30;;;4.60;99.90;;;;;;5048590;28;20440;-89
2023/01/27 02:01:46;;;;;;;1.70;0.87;;;4.60;99.90;;;;;;5047004;28;20422;-90
2023/01/27 02:04:19;;;;;;;2.13;0.87;;;4.60;99.90;;;;;;5034381;28;20435;-89
2023/01/27 02:06:56;;;;;;;1.80;0.60;;;4.50;99.90;;;;;;5030480;28;20409;-91
2023/01/27 02:09:22;;;;;;;1.90;0.70;;;4.50;99.90;;;;;;5034456;28;20410;-87
2023/01/27 02:12:08;;;;;;;2.10;0.57;;;4.50;99.90;;;;;;5033413;28;20465;-87
2023/01/27 02:14:34;;;;;;;1.90;0.90;;;4.50;99.90;;;;;;5028357;28;20426;-90
2023/01/27 02:16:59;;;;;;;2.17;0.60;;;4.50;99.90;;;;;;5028335;28;20918;-89
2023/01/27 02:19:57;;;;;;;1.27;0.87;;;4.50;99.90;;;;;;5042495;28;20215;-91
2023/01/27 02:22:56;;;;;;;1.73;0.60;;;4.50;99.90;;;;;;5040311;28;21001;-95
2023/01/27 02:25:33;;;;;;;1.70;0.50;;;4.60;99.90;;;;;;5025498;28;20944;-95
2023/01/27 02:28:00;;;;;;;1.67;0.80;;;4.40;99.90;;;;;;5024628;28;20503;-94
2023/01/27 02:30:26;;;;;;;2.33;1.00;;;4.90;99.90;;;;;;5044489;28;20415;-95
2023/01/27 02:32:51;;;;;;;2.20;0.60;;;4.60;99.90;;;;;;5026495;28;20519;-93
2023/01/27 02:35:42;;;;;;;1.47;0.70;;;4.50;99.90;;;;;;5027231;28;20197;-94
2023/01/27 02:38:12;;;;;;;2.73;0.90;;;4.60;99.90;;;;;;5024914;28;20197;-94
2023/01/27 02:40:39;;;;;;;1.17;0.70;;;4.50;99.90;;;;;;5043520;28;20437;-92
2023/01/27 02:43:04;;;;;;;2.00;1.13;;;4.50;99.90;;;;;;5046772;28;20456;-93
2023/01/27 02:45:30;;;;;;;1.47;0.60;;;4.60;99.90;;;;;;5043147;28;20417;-89
2023/01/27 02:47:56;;;;;;;5.43;1.97;;;4.50;99.90;;;;;;5054748;28;20194;-88
2023/01/27 02:50:21;;;;;;;1.63;1.17;;;4.50;99.90;;;;;;5056456;28;20413;-85
2023/01/27 02:52:47;;;;;;;1.93;0.90;;;4.50;99.90;;;;;;5055761;28;20191;-84
2023/01/27 02:55:12;;;;;;;1.47;0.63;;;4.50;99.90;;;;;;5015473;28;20244;-85
2023/01/27 02:57:58;;;;;;;1.40;0.60;;;4.50;99.90;;;;;;5021337;23;20206;-90
2023/01/27 03:00:23;;;;;;;1.13;0.63;;;4.30;99.90;;;;;;5173536;23;20247;-94
2023/01/27 03:02:49;;;;;;;1.50;0.80;;;4.50;99.90;;;;;;4972637;28;20488;-96
2023/01/27 03:05:14;;;;;;;0.80;0.40;;;4.40;99.90;;;;;;4976166;28;20326;-89
2023/01/27 03:07:40;;;;;;;1.00;0.63;;;4.40;99.90;;;;;;4968019;28;20180;-94
2023/01/27 03:10:07;;;;;;;0.97;0.40;;;4.40;99.90;;;;;;4970864;28;20181;-95
2023/01/27 03:12:52;;;;;;;1.77;0.40;;;4.40;99.90;;;;;;4969440;28;20473;-95
2023/01/27 03:18:16;;;;;;;0.97;0.23;;;4.30;99.90;;;;;;4985958;28;20431;-86
2023/01/27 03:20:47;;;;;;;1.20;0.50;;;4.30;99.90;;;;;;4972966;28;20419;-96
2023/01/27 03:23:15;;;;;;;5.13;0.70;;;4.30;99.90;;;;;;4980482;28;20179;-93
2023/01/27 03:25:42;;;;;;;1.37;0.83;;;4.20;99.90;;;;;;4962126;28;20479;-90
2023/01/27 03:28:08;;;;;;;1.70;0.30;;;4.20;99.90;;;;;;4982937;28;20425;-91
2023/01/27 03:30:34;;;;;;;4.13;0.83;;;4.10;99.90;;;;;;4973834;28;20420;-91
2023/01/27 03:33:04;;;;;;;1.17;0.40;;;4.10;99.90;;;;;;4947286;29;20280;-92
2023/01/27 03:35:33;;;;;;;2.20;0.20;;;4.10;99.90;;;;;;4947771;29;20317;-93
2023/01/27 03:46:17;;;;;;;0.80;0.20;;;4.10;99.90;;;;;;4962089;29;20408;-88
2023/01/27 03:48:49;;;;;;;0.70;0.37;;;3.90;99.90;;;;;;4961699;29;20429;-92
2023/01/27 03:51:15;;;;;;;1.30;0.37;;;4.00;99.90;;;;;;4958212;28;20210;-94
2023/01/27 03:53:43;;;;;;;1.33;0.50;;;4.10;99.90;;;;;;4983066;28;20436;-91
2023/01/27 03:56:09;;;;;;;0.93;0.23;;;4.20;99.90;;;;;;4992888;28;20433;-94
2023/01/27 03:58:36;;;;;;;1.90;0.30;;;4.50;99.90;;;;;;4993353;28;20459;-94
2023/01/27 04:01:11;;;;;;;0.70;0.50;;;4.10;99.90;;;;;;4985286;28;20436;-93
2023/01/27 04:09:12;;;;;;;0.73;0.30;;;4.10;99.90;;;;;;4992376;28;20419;-93
2023/01/27 04:14:29;;;;;;;0.70;0.23;;;4.10;99.90;;;;;;4966997;28;20940;-95
2023/01/27 04:16:58;;;;;;;0.60;0.27;;;4.20;99.90;;;;;;4969501;29;20542;-91
2023/01/27 04:19:24;;;;;;;0.73;0.57;;;4.10;99.90;;;;;;4960427;28;20519;-94
2023/01/27 04:21:51;;;;;;;1.57;0.30;;;4.10;99.90;;;;;;4983296;28;20941;-89
2023/01/27 04:24:21;;;;;;;0.50;0.30;;;4.10;99.90;;;;;;4973045;28;20439;-89
2023/01/27 04:26:48;;;;;;;0.60;0.37;;;4.10;99.90;;;;;;4980921;28;20454;-89
2023/01/27 04:29:14;;;;;;;2.00;0.50;;;4.00;99.90;;;;;;4991220;28;20434;-88
2023/01/27 04:31:40;;;;;;;2.23;0.63;;;3.90;99.90;;;;;;4985922;28;20490;-92
2023/01/27 04:34:06;;;;;;;2.40;0.53;;;4.00;99.90;;;;;;4973643;28;20423;-91
2023/01/27 04:36:32;;;;;;;0.50;0.27;;;4.00;99.90;;;;;;4990072;28;20173;-92
2023/01/27 04:38:57;;;;;;;0.77;0.40;;;3.90;99.90;;;;;;4984349;23;20558;-85
2023/01/27 04:41:23;;;;;;;1.03;0.60;;;3.70;99.90;;;;;;4955331;29;20157;-95
2023/01/27 04:43:48;;;;;;;2.20;0.50;;;3.90;99.90;;;;;;4962881;29;20173;-94
2023/01/27 04:46:13;;;;;;;0.93;0.30;;;3.90;99.90;;;;;;4959212;29;20198;-85
2023/01/27 04:48:39;;;;;;;1.93;0.50;;;3.80;99.90;;;;;;4946476;29;20177;-86
2023/01/27 04:51:05;;;;;;;1.23;0.40;;;3.90;99.90;;;;;;4962563;29;20253;-94
2023/01/27 04:53:30;;;;;;;1.47;0.20;;;3.90;99.90;;;;;;4946715;29;20212;-88
2023/01/27 04:56:13;;;;;;;0.87;0.30;;;3.90;99.90;;;;;;4946315;29;20257;-90
2023/01/27 04:58:39;;;;;;;0.80;0.70;;;3.90;99.90;;;;;;4940508;29;20186;-90
2023/01/27 05:01:04;;;;;;;1.77;0.60;;;4.00;99.90;;;;;;4956002;29;20480;-95
2023/01/27 05:03:30;;;;;;;2.97;0.60;;;4.00;99.90;;;;;;4954572;29;20263;-85
2023/01/27 05:05:55;;;;;;;1.17;0.40;;;4.00;99.90;;;;;;4944198;29;20189;-88
2023/01/27 05:08:21;;;;;;;1.03;0.40;;;3.90;99.90;;;;;;4926833;29;20182;-94
2023/01/27 05:10:46;;;;;;;0.90;0.57;;;3.90;99.90;;;;;;4939941;29;20178;-84
2023/01/27 05:13:12;;;;;;;1.60;0.73;;;3.80;99.90;;;;;;4941374;29;20242;-93
2023/01/27 05:15:37;;;;;;;0.73;0.37;;;3.90;99.90;;;;;;4939010;29;20185;-87
2023/01/27 05:18:03;;;;;;;0.70;0.33;;;3.90;99.90;;;;;;4941155;29;20205;-95
2023/01/27 05:20:30;;;;;;;0.60;0.20;;;3.80;99.90;;;;;;4938164;29;20197;-93
2023/01/27 05:23:33;;;;;;;5.60;0.53;;;3.90;99.90;;;;;;4937949;29;20168;-94
2023/01/27 05:25:44;;;;;;;2.23;0.60;;;3.80;99.90;;;;;;4940711;29;20421;-93
2023/01/27 05:28:10;;;;;;;1.47;0.20;;;3.80;99.90;;;;;;4941516;29;20774;-94
2023/01/27 05:30:36;;;;;;;0.50;0.23;;;3.80;99.90;;;;;;4940369;29;20425;-94
2023/01/27 05:33:02;;;;;;;0.50;0.20;;;3.80;99.90;;;;;;4944582;29;20469;-94
2023/01/27 05:35:34;;;;;;;0.70;0.30;;;3.80;99.90;;;;;;4944842;29;20184;-88
2023/01/27 05:38:00;;;;;;;0.80;0.40;;;3.70;99.90;;;;;;4943391;29;20427;-95
2023/01/27 05:40:47;;;;;;;1.40;0.50;;;3.80;99.90;;;;;;4926395;29;20483;-93
2023/01/27 05:43:13;;;;;;;0.80;0.40;;;3.70;99.90;;;;;;4967128;29;20422;-95
2023/01/27 05:45:41;;;;;;;1.80;0.40;;;3.70;99.90;;;;;;4914324;29;20433;-92
2023/01/27 05:48:07;;;;;;;0.53;0.20;;;3.70;99.90;;;;;;4948303;29;20202;-94
2023/01/27 05:50:34;;;;;;;5.83;0.30;;;3.70;99.90;;;;;;4943829;29;20862;-96
2023/01/27 05:53:00;;;;;;;1.03;0.57;;;3.70;99.90;;;;;;4947465;29;20254;-93
2023/01/27 05:55:25;;;;;;;1.17;0.70;;;3.70;99.90;;;;;;4944987;29;20405;-84
2023/01/27 05:57:51;;;;;;;0.80;0.30;;;3.60;99.90;;;;;;4948482;29;20205;-94
2023/01/27 06:00:17;;;;;;;3.80;0.80;;;3.70;99.90;;;;;;4951143;29;20366;-94
2023/01/27 06:02:42;;;;;;;1.80;0.27;;;3.70;99.90;;;;;;4962235;23;20318;-94
2023/01/27 06:05:08;;;;;;;1.50;0.30;;;3.70;99.90;;;;;;4966055;28;20424;-94
2023/01/27 06:07:33;;;;;;;0.70;0.30;;;3.70;99.90;;;;;;4948736;29;20223;-94
2023/01/27 06:09:59;;;;;;;1.10;0.20;;;3.70;99.90;;;;;;4972390;28;20182;-96
2023/01/27 06:12:27;;;;;;;1.33;0.50;;;3.70;99.90;;;;;;4964889;29;20341;-94
2023/01/27 06:14:54;;;;;;;2.20;0.50;;;4.80;99.90;;;;;;4976982;29;20188;-89
2023/01/27 06:17:19;;;;;;;1.80;0.30;;;3.60;99.90;;;;;;4963350;28;20424;-93
2023/01/27 06:19:45;;;;;;;0.90;0.30;;;3.60;99.90;;;;;;4967401;29;20425;-91
2023/01/27 06:22:10;;;;;;;1.63;0.53;;;3.60;99.90;;;;;;4947828;29;20180;-95
2023/01/27 06:24:36;;;;;;;1.07;0.60;;;3.60;99.90;;;;;;4963085;29;20172;-94
2023/01/27 06:27:01;;;;;;;2.87;0.50;;;3.60;99.90;;;;;;4958097;29;20684;-91
2023/01/27 06:29:29;;;;;;;1.07;0.60;;;3.60;99.90;;;;;;4957648;29;20215;-93
2023/01/27 06:31:54;;;;;;;1.13;0.20;;;3.60;99.90;;;;;;4958162;29;20197;-93
2023/01/27 06:34:20;;;;;;;0.90;0.40;;;3.50;99.90;;;;;;4957807;29;20417;-92
2023/01/27 06:36:45;;;;;;;3.47;0.47;;;3.50;99.90;;;;;;4958575;29;20173;-93
2023/01/27 06:39:11;;;;;;;3.23;0.40;;;3.50;99.90;;;;;;4961308;29;20658;-93
2023/01/27 06:41:37;;;;;;;6.23;0.50;;;3.50;99.90;;;;;;4961839;28;20173;-93
2023/01/27 06:44:02;;;;;;;1.20;0.30;;;3.50;99.90;;;;;;4944729;29;20556;-93
2023/01/27 06:46:28;;;;;;;2.00;0.80;;;3.50;99.90;;;;;;4961040;29;20177;-93
2023/01/27 06:48:53;;;;;;;1.43;0.67;;;3.50;99.90;;;;;;4959200;29;20184;-92
2023/01/27 06:51:19;;;;;;;1.13;0.73;;;3.40;99.90;;;;;;4977984;28;20245;-95
2023/01/27 06:53:44;;;;;;;1.03;0.50;;;3.40;99.90;;;;;;5055899;23;20166;-90
2023/01/27 06:56:10;;;;;;;2.73;0.80;;;3.20;99.90;;;;;;4983112;28;20209;-89
2023/01/27 06:58:35;;;;;;;0.80;0.70;;;3.90;99.90;;;;;;5001775;28;20160;-91
2023/01/27 07:01:04;;;;;;;2.93;0.77;;;3.30;99.90;;;;;;4994383;28;20192;-91
2023/01/27 07:03:29;;;;;;;1.93;0.67;;;3.40;99.90;;;;;;4978580;28;20248;-93
2023/01/27 07:05:55;;;;;;;1.03;0.30;;;3.30;99.90;;;;;;4961530;28;20420;-91
2023/01/27 07:08:20;;;;;;;0.90;0.50;;;3.40;99.90;;;;;;4978714;28;20272;-94
2023/01/27 07:10:47;;;;;;;2.27;0.70;;;3.30;99.90;;;;;;4962250;28;20180;-91
2023/01/27 07:13:13;;;;;;;1.83;1.20;;;3.30;99.90;;;;;;4962788;28;20587;-92
2023/01/27 07:15:39;;;;;;;0.73;0.30;;;3.60;99.90;;;;;;4963738;28;20421;-90
2023/01/27 07:18:10;;;;;;;2.40;0.50;;;3.30;99.90;;;;;;4977824;28;20420;-88
2023/01/27 07:20:35;;;;;;;1.03;0.50;;;3.30;99.90;;;;;;4978658;28;20164;-92
2023/01/27 07:23:03;;;;;;;1.13;0.60;;;3.30;99.90;;;;;;4960314;28;20490;-91
2023/01/27 07:25:30;;;;;;;3.07;1.40;;;3.30;99.90;;;;;;4965386;28;20176;-91
2023/01/27 07:27:57;;;;;;;2.50;0.80;;;3.30;99.90;;;;;;4983698;28;20423;-88
2023/01/27 07:30:23;;;;;;;2.60;0.70;;;3.30;99.90;;;;;;4962242;28;20438;-93
2023/01/27 07:32:49;;;;;;;1.57;0.57;;;3.30;99.90;;;;;;4978168;28;20467;-93
2023/01/27 07:35:15;;;;;;;3.43;1.10;;;3.30;99.90;;;;;;4977520;28;20514;-92
2023/01/27 07:37:40;;;;;;;1.10;0.50;;;3.20;99.90;;;;;;4961176;28;20514;-92
2023/01/27 07:40:08;;;;;;;2.00;0.70;;;3.30;99.90;;;;;;4961110;28;20478;-90
2023/01/27 07:42:33;;;;;;;2.60;0.50;;;3.30;99.90;;;;;;4973637;28;20164;-92
2023/01/27 07:44:59;;;;;;;1.03;0.40;;;3.30;99.90;;;;;;4995006;28;20438;-86
2023/01/27 07:47:24;;;;;;;2.27;0.63;;;3.30;99.90;;;;;;4998314;28;20236;-93
2023/01/27 07:49:50;;;;;;;5.73;1.73;;;3.30;99.90;;;;;;4979833;28;20185;-87
2023/01/27 07:52:15;;;;;;;2.73;0.53;;;3.30;99.90;;;;;;4978013;28;20223;-92
2023/01/27 07:54:41;;;;;;;1.07;0.63;;;3.30;99.90;;;;;;4980583;28;20319;-85
2023/01/27 07:57:08;;;;;;;5.40;0.80;;;3.30;99.90;;;;;;5063465;23;20237;-86
2023/01/27 07:59:33;;;;;;;0.90;0.20;;;2.90;99.90;;;;;;4961370;29;20245;-86
2023/01/27 08:01:59;;;;;;;1.53;0.30;;;4.70;99.90;;;;;;4959080;29;20444;-88
2023/01/27 08:04:24;;;;;;;1.00;0.57;;;3.00;99.90;;;;;;4952563;29;20177;-86
2023/01/27 08:06:52;;;;;;;2.30;0.57;;;3.10;99.90;;;;;;4950765;29;20175;-86
2023/01/27 08:09:18;;;;;;;1.90;1.00;;;3.40;99.90;;;;;;5064292;23;20280;-91
2023/01/27 08:11:43;;;;;;;0.80;0.30;;;3.00;99.90;;;;;;4965523;28;20499;-84
2023/01/27 08:14:09;;;;;;;6.27;0.60;;;3.30;99.90;;;;;;4960101;28;20182;-89
2023/01/27 08:16:34;;;;;;;1.00;0.33;;;3.30;99.90;;;;;;4959885;28;20173;-84
2023/01/27 08:19:00;;;;;;;1.07;0.43;;;3.20;99.90;;;;;;4959057;28;20235;-84
2023/01/27 08:21:31;;;;;;;1.53;0.60;;;3.30;99.90;;;;;;4966845;28;20169;-84
2023/01/27 08:23:57;;;;;;;1.00;0.20;;;3.30;99.90;;;;;;4966151;28;20169;-84
2023/01/27 08:26:22;;;;;;;2.40;0.53;;;3.40;99.90;;;;;;4962401;28;20443;-84
2023/01/27 08:28:48;;;;;;;1.17;0.70;;;3.40;99.90;;;;;;4965738;28;20168;-94
2023/01/27 08:31:15;;;;;;;2.87;0.33;;;3.40;99.90;;;;;;4966790;28;20185;-94
2023/01/27 08:33:42;;;;;;;3.17;0.83;;;3.40;99.90;;;;;;4965171;28;20716;-93
2023/01/27 08:36:11;;;;;;;2.10;0.77;;;3.50;99.90;;;;;;4966696;28;20416;-93
2023/01/27 08:38:37;;;;;;;8.10;0.80;;;3.40;99.90;;;;;;4957344;29;20426;-91
2023/01/27 08:41:09;;;;;;;2.53;0.73;;;3.50;99.90;;;;;;4971221;28;20439;-90
2023/01/27 08:43:34;;;;;;;2.20;0.70;;;3.50;99.90;;;;;;4959547;28;20420;-92
2023/01/27 08:46:00;;;;;;;1.10;0.50;;;3.50;99.90;;;;;;4956142;28;20424;-85
2023/01/27 08:48:30;;;;;;;3.93;0.73;;;3.60;99.90;;;;;;4972727;28;20244;-88
2023/01/27 08:50:57;;;;;;;3.07;0.73;;;3.60;99.90;;;;;;4956513;28;20785;-91
2023/01/27 08:53:23;;;;;;;1.80;0.40;;;3.60;99.90;;;;;;4960203;28;20511;-93
2023/01/27 08:55:50;;;;;;;4.70;1.20;;;3.50;99.90;;;;;;4967573;28;20415;-90
2023/01/27 08:58:16;;;;;;;0.77;0.40;;;3.50;99.90;;;;;;4962150;28;20454;-87
2023/01/27 09:00:42;;;;;;;3.50;0.87;;;3.40;99.90;;;;;;4961188;28;20436;-93
2023/01/27 09:03:08;;;;;;;1.00;0.53;;;3.50;99.90;;;;;;4962137;28;20813;-84
2023/01/27 09:05:35;;;;;;;1.93;0.87;;;3.40;99.90;;;;;;4966204;28;20426;-84
2023/01/27 09:08:00;;;;;;;4.70;0.60;;;3.50;99.90;;;;;;4963711;28;20650;-90
2023/01/27 09:10:26;;;;;;;0.83;0.50;;;3.40;99.90;;;;;;4978711;28;20405;-89
2023/01/27 09:12:51;;;;;;;2.73;0.63;;;3.40;99.90;;;;;;4971641;28;20350;-87
2023/01/27 09:15:20;;;;;;;3.00;1.07;;;3.40;99.90;;;;;;4970069;28;20172;-93
2023/01/27 09:17:46;;;;;;;0.50;0.20;;;3.40;99.90;;;;;;4958805;28;20177;-92
2023/01/27 09:20:12;;;;;;;1.03;0.40;;;3.40;99.90;;;;;;4956746;29;20419;-88
2023/01/27 09:22:39;;;;;;;0.73;0.23;;;3.50;99.90;;;;;;4966812;28;20417;-87
2023/01/27 09:25:06;;;;;;;1.27;0.20;;;3.40;99.90;;;;;;4974145;28;20424;-86
2023/01/27 09:27:31;;;;;;;1.50;0.73;;;3.50;99.90;;;;;;4976995;28;20500;-84
2023/01/27 09:30:00;;;;;;;0.70;0.43;;;3.50;99.90;;;;;;4963065;28;20936;-84
2023/01/27 09:32:25;;;;;;;0.83;0.50;;;3.50;99.90;;;;;;4961865;28;20299;-88
2023/01/27 09:34:51;;;;;;;2.00;0.50;;;3.50;99.90;;;;;;4962675;28;20445;-90
2023/01/27 09:37:17;;;;;;;0.43;0.20;;;3.50;99.90;;;;;;4960445;28;20191;-84
2023/01/27 09:39:48;;;;;;;1.87;0.50;;;3.50;99.90;;;;;;4967624;28;20184;-84
2023/01/27 09:42:38;;;;;;;3.73;0.63;;;3.70;99.90;;;;;;4966286;28;20522;-88
2023/01/27 09:45:20;;;;;;;2.20;0.47;;;3.80;99.90;;;;;;4957146;28;20425;-91
2023/01/27 09:47:51;;;;;;;0.67;0.30;;;3.90;99.90;;;;;;4962386;28;20480;-92
2023/01/27 09:50:40;;;;;;;1.57;0.47;;;4.00;99.90;;;;;;4962026;28;20948;-92
2023/01/27 09:53:34;;;;;;;1.83;0.77;;;4.00;99.90;;;;;;4968429;28;20459;-93
2023/01/27 09:56:30;;;;;;;1.13;0.37;;;4.00;99.90;;;;;;4961746;28;20413;-83
2023/01/27 09:59:24;;;;;;;1.43;0.40;;;4.10;99.90;;;;;;4973190;28;20420;-83
2023/01/27 10:02:24;;;;;;;2.17;0.40;;;4.20;99.90;;;;;;4878422;29;20439;-91
2023/01/27 10:05:18;;;;;;;1.20;0.37;;;4.30;99.90;;;;;;4958195;28;20781;-91
2023/01/27 10:08:07;;;;;;;0.67;0.40;;;4.30;99.90;;;;;;4983474;28;20471;-90
2023/01/27 10:10:49;;;;;;;6.53;0.30;;;4.30;99.90;;;;;;4957234;29;20445;-94
2023/01/27 10:13:27;;;;;;;1.10;0.50;;;4.50;99.90;;;;;;4942980;29;21049;-92
2023/01/27 10:16:12;;;;;;;1.60;0.43;;;4.50;99.90;;;;;;4969020;28;20410;-92
2023/01/27 10:18:55;;;;;;;0.40;0.20;;;4.50;99.90;;;;;;4979355;28;20449;-84
2023/01/27 10:21:44;;;;;;;0.60;0.20;;;4.30;99.90;;;;;;4958956;29;20493;-88
2023/01/27 10:24:38;;;;;;;1.47;0.20;;;4.30;99.90;;;;;;4972631;28;20418;-91
2023/01/27 10:27:20;;;;;;;2.70;0.67;;;4.50;99.90;;;;;;4969017;28;20493;-92
2023/01/27 10:30:11;;;;;;;3.93;0.40;;;4.50;99.90;;;;;;4954277;28;20432;-83
2023/01/27 10:32:45;;;;;;;0.50;0.20;;;4.40;99.90;;;;;;4964556;28;20508;-92
2023/01/27 10:35:21;;;;;;;0.63;0.20;;;4.50;99.90;;;;;;4979981;28;20430;-89
2023/01/27 10:37:53;;;;;;;1.33;0.30;;;4.50;99.90;;;;;;4977531;28;20433;-91
2023/01/27 10:40:38;;;;;;;2.10;0.27;;;4.60;99.90;;;;;;4980247;28;20427;-84
2023/01/27 10:43:21;;;;;;;3.77;0.63;;;4.40;99.90;;;;;;4975448;29;20414;-88
2023/01/27 10:46:10;;;;;;;0.60;0.50;;;4.30;99.90;;;;;;4960400;29;20949;-90
2023/01/27 10:48:49;;;;;;;1.83;0.57;;;4.20;99.90;;;;;;4962882;28;20426;-92
2023/01/27 10:51:39;;;;;;;3.23;0.27;;;4.30;99.90;;;;;;4965538;28;20433;-92
2023/01/27 10:54:31;;;;;;;1.43;0.20;;;4.20;99.90;;;;;;4944123;29;20449;-90
2023/01/27 10:57:20;;;;;;;0.50;0.20;;;4.30;99.90;;;;;;4926420;29;20520;-92
2023/01/27 11:00:20;;;;;;;1.53;0.30;;;4.20;99.90;;;;;;4943515;29;20953;-93
2023/01/27 11:03:00;;;;;;;2.70;0.20;;;4.40;99.90;;;;;;4947912;28;20471;-89
2023/01/27 11:05:35;;;;;;;0.70;0.30;;;4.50;99.90;;;;;;4978941;28;20464;-92
2023/01/27 11:08:13;;;;;;;1.73;0.20;;;4.50;99.90;;;;;;4977126;28;20790;-85
2023/01/27 11:11:42;;;;;;;0.60;0.20;;;4.50;99.90;;;;;;4975059;28;20516;-89
2023/01/27 11:13:30;;;;;;;3.77;0.43;;;4.60;99.90;;;;;;4977577;28;20476;-92
2023/01/27 11:15:57;;;;;;;0.77;0.37;;;4.50;99.90;;;;;;4943147;28;20477;-84
2023/01/27 11:18:27;;;;;;;0.77;0.40;;;4.40;99.90;;;;;;4960515;28;20472;-85
2023/01/27 11:20:58;;;;;;;5.77;2.03;;;4.20;99.90;;;;;;4960707;28;20487;-93
2023/01/27 11:23:29;;;;;;;4.70;1.83;;;4.10;99.90;;;;;;4978374;28;20414;-89
2023/01/27 11:26:39;;;;;;;1.47;0.60;;;4.10;99.90;;;;;;4961693;28;20433;-93
2023/01/27 11:29:20;;;;;;;2.20;0.97;;;4.00;99.90;;;;;;4976673;28;20433;-91
2023/01/27 11:32:00;;;;;;;0.90;0.50;;;4.00;46.70;;;;;;4979148;28;20503;-92
2023/01/27 11:34:44;;;;;;;3.33;0.40;;;4.00;45.80;;;;;;4977126;28;20426;-87
2023/01/27 11:37:20;;;;;;;0.70;0.30;;;3.90;99.90;;;;;;4977017;28;20779;-93
2023/01/27 11:39:47;;;;;;;1.17;0.30;;;3.80;99.90;;;;;;4977817;28;20407;-91
2023/01/27 11:42:13;;;;;;;2.30;0.20;;;3.80;99.90;;;;;;4959320;28;20415;-83
2023/01/27 11:44:40;;;;;;;1.30;0.30;;;3.80;99.90;;;;;;4957670;29;20440;-88
2023/01/27 11:47:07;;;;;;;0.90;0.60;;;3.80;99.90;;;;;;4964890;28;20412;-86
2023/01/27 11:49:43;;;;;;;4.30;0.20;;;3.90;99.90;;;;;;4976961;28;20487;-91
2023/01/27 11:52:16;;;;;;;1.37;1.20;;;4.00;99.90;;;;;;4976053;28;20467;-92
2023/01/27 11:54:56;;;;;;;3.17;1.60;;;4.10;99.90;;;;;;4977620;28;20420;-83
2023/01/27 11:57:24;;;;;;;8.63;7.60;;;4.30;45.70;;;;;;4959597;28;20424;-84
2023/01/27 11:59:55;;;;;;;1.13;0.50;;;4.40;1.00;;;;;;4976631;28;20428;-89
2023/01/27 12:02:53;;;;;;;1.40;0.30;;;4.50;56.50;;;;;;4976900;28;20404;-92
2023/01/27 12:05:27;;;;;;;2.50;0.80;;;4.30;99.90;;;;;;4976143;28;20463;-92
2023/01/27 12:07:59;;;;;;;2.20;0.70;;;4.10;99.90;;;;;;4979014;28;20424;-94
2023/01/27 12:10:39;;;;;;;1.60;1.03;;;4.10;99.90;;;;;;4960720;28;20511;-87
2023/01/27 12:13:18;;;;;;;0.80;0.30;;;4.10;99.90;;;;;;4958920;28;20900;-84
2023/01/27 12:15:59;;;;;;;1.90;0.70;;;4.00;99.90;;;;;;4959028;28;20514;-86
2023/01/27 12:18:25;;;;;;;1.40;0.73;;;4.00;99.90;;;;;;4957131;28;20427;-90
2023/01/27 12:21:00;;;;;;;0.97;0.57;;;4.10;99.90;;;;;;4959168;28;20431;-88
2023/01/27 12:23:38;;;;;;;0.90;0.50;;;4.40;99.90;;;;;;4973787;28;20431;-83
2023/01/27 12:26:06;;;;;;;4.23;1.23;;;4.30;99.90;;;;;;4939583;29;20937;-89
2023/01/27 12:28:33;;;;;;;2.63;0.97;;;4.40;99.90;;;;;;4956718;28;20431;-84
2023/01/27 12:31:09;;;;;;;0.83;0.50;;;4.90;99.90;;;;;;4944380;28;20422;-86
2023/01/27 12:33:39;;;;;;;2.87;0.30;;;5.30;85.00;;;;;;4956344;29;20568;-91
2023/01/27 12:36:21;;;;;;;2.50;0.40;;;4.90;91.50;;;;;;4956387;29;20431;-85
2023/01/27 12:38:52;;;;;;;1.13;0.87;;;4.70;99.90;;;;;;4956292;28;20416;-84
2023/01/27 12:41:31;;;;;;;0.60;0.23;;;4.50;99.90;;;;;;4956795;29;20438;-86
2023/01/27 12:44:06;;;;;;;1.00;0.30;;;4.50;99.90;;;;;;4955501;29;20425;-91
2023/01/27 12:46:32;;;;;;;1.03;0.30;;;4.40;99.90;;;;;;4956060;29;20435;-93
2023/01/27 12:49:09;;;;;;;2.83;0.30;;;4.30;99.90;;;;;;4962301;28;20436;-93
2023/01/27 12:51:43;;;;;;;1.13;0.20;;;4.30;99.90;;;;;;4976755;28;20529;-92
2023/01/27 12:54:20;;;;;;;5.60;1.20;;;4.40;99.90;;;;;;4975504;28;20445;-94
2023/01/27 12:56:47;;;;;;;1.27;0.57;;;5.30;99.90;;;;;;4962183;28;21043;-88
2023/01/27 12:59:16;;;;;;;0.60;0.20;;;6.20;48.50;;;;;;4955183;29;20427;-92
2023/01/27 13:01:43;;;;;;;2.20;0.30;;;5.60;99.90;;;;;;4920914;28;20445;-85
2023/01/27 13:04:18;;;;;;;3.73;0.30;;;5.00;1.00;;;;;;4976345;28;20422;-87
2023/01/27 13:06:53;;;;;;;2.47;0.30;;;4.50;1.00;;;;;;4963229;28;20426;-93
2023/01/27 13:09:24;;;;;;;0.53;0.30;;;4.20;42.20;;;;;;4958496;28;20471;-88
2023/01/27 13:11:50;;;;;;;0.97;0.33;;;4.10;99.90;;;;;;4975630;28;20502;-90
2023/01/27 13:14:16;;;;;;;1.73;0.37;;;3.90;99.90;;;;;;4975605;28;20429;-93
2023/01/27 13:16:51;;;;;;;0.40;0.30;;;3.90;99.90;;;;;;4975531;28;20420;-91
2023/01/27 13:19:17;;;;;;;2.17;0.40;;;3.80;99.90;;;;;;4973435;28;20809;-85
2023/01/27 13:21:48;;;;;;;0.73;0.33;;;3.90;99.90;;;;;;4972518;28;20793;-85
2023/01/27 13:24:21;;;;;;;2.10;0.53;;;4.00;37.50;;;;;;4958581;28;20436;-92
2023/01/27 13:26:49;;;;;;;0.50;0.20;;;4.10;17.90;;;;;;4957412;28;20425;-91
2023/01/27 13:29:25;;;;;;;1.07;0.40;;;4.30;1.00;;;;;;4972240;28;20435;-93
2023/01/27 13:32:04;;;;;;;2.57;0.40;;;4.30;1.00;;;;;;4975309;28;20553;-93
2023/01/27 13:35:23;;;;;;;0.87;0.50;;;4.30;1.00;;;;;;4958610;28;20806;-92
2023/01/27 13:38:14;;;;;;;1.30;0.70;;;4.20;1.00;;;;;;4878716;29;20430;-89
2023/01/27 13:40:44;;;;;;;1.27;0.20;;;4.20;1.00;;;;;;4954894;29;20800;-92
2023/01/27 13:43:32;;;;;;;2.37;0.40;;;4.10;99.90;;;;;;4939803;29;20416;-92
2023/01/27 13:46:09;;;;;;;3.37;0.50;;;4.00;99.90;;;;;;4939926;29;20540;-93
2023/01/27 13:48:44;;;;;;;0.87;0.30;;;4.00;99.90;;;;;;4955946;29;20611;-93
2023/01/27 13:51:18;;;;;;;0.53;0.20;;;4.00;99.90;;;;;;4963126;28;20809;-93
2023/01/27 13:53:46;;;;;;;3.30;0.20;;;4.00;1.00;;;;;;4961125;28;20562;-87